Time;durP1;ratioP1;P1;durP2;ratioP2;P2;SDS_P1;SDS_P2;PMS_P1;PMS_P2;Temp;Humidity;BMP_temperature;BMP_pressure;BME280_temperature;BME280_humidity;BME280_pressure;Samples;Min_cycle;Max_cycle;Signal;HPM_P1;HPM_P2
2024/03/29 00:00:55;;;;;;;;;;;4.30;99.90;;;;;;4944543;28;19934;-65
2024/03/29 00:03:21;;;;;;;;;;;4.20;99.90;;;;;;4941021;28;19996;-65
2024/03/29 00:05:47;;;;;;;;;;;4.10;99.90;;;;;;4952519;28;19927;-65
2024/03/29 00:08:14;;;;;;;;;;;4.10;99.90;;;;;;4955124;28;20000;-65
2024/03/29 00:10:39;;;;;;;;;;;4.10;99.90;;;;;;4953677;28;20701;-65
2024/03/29 00:13:05;;;;;;;;;;;4.10;99.90;;;;;;4954069;28;19926;-65
2024/03/29 00:15:32;;;;;;;;;;;4.00;99.90;;;;;;4944402;28;19980;-65
2024/03/29 00:17:58;;;;;;;;;;;4.00;99.90;;;;;;4948486;28;19985;-65
2024/03/29 00:20:23;;;;;;;;;;;4.00;99.90;;;;;;4946275;28;20021;-65
2024/03/29 00:22:49;;;;;;;;;;;4.00;99.90;;;;;;4954135;28;19937;-65
2024/03/29 00:25:15;;;;;;;;;;;4.00;99.90;;;;;;4954684;28;19937;-65
2024/03/29 00:27:43;;;;;;;;;;;4.10;99.90;;;;;;4942199;28;20021;-65
2024/03/29 00:30:09;;;;;;;;;;;4.20;99.90;;;;;;4952533;28;19926;-66
2024/03/29 00:32:35;;;;;;;;;;;4.20;99.90;;;;;;4923416;28;20441;-65
2024/03/29 00:35:01;;;;;;;;;;;4.30;99.90;;;;;;4954384;28;19930;-65
2024/03/29 00:37:27;;;;;;;;;;;4.30;99.90;;;;;;4953788;28;19929;-65
2024/03/29 00:39:53;;;;;;;;;;;4.20;99.90;;;;;;4953955;28;19930;-65
2024/03/29 00:42:20;;;;;;;;;;;4.20;99.90;;;;;;4952995;28;19938;-65
2024/03/29 00:44:46;;;;;;;;;;;4.20;99.90;;;;;;4948849;28;19926;-65
2024/03/29 00:47:13;;;;;;;;;;;4.20;99.90;;;;;;4943408;28;19986;-65
2024/03/29 00:49:39;;;;;;;;;;;4.20;99.90;;;;;;4953983;28;20383;-65
2024/03/29 00:52:05;;;;;;;;;;;4.20;99.90;;;;;;4954217;28;19934;-65
2024/03/29 00:54:31;;;;;;;;;;;4.30;99.90;;;;;;4945947;28;19934;-65
2024/03/29 00:56:57;;;;;;;;;;;4.40;99.90;;;;;;4943012;28;19934;-65
2024/03/29 00:59:23;;;;;;;;;;;4.50;99.90;;;;;;4954320;28;19961;-65
2024/03/29 01:01:49;;;;;;;;;;;4.50;99.90;;;;;;4947487;28;19930;-66
2024/03/29 01:04:15;;;;;;;;;;;4.50;99.90;;;;;;4956066;28;20355;-65
2024/03/29 01:06:41;;;;;;;;;;;4.40;99.90;;;;;;4966648;28;19934;-65
2024/03/29 01:09:11;;;;;;;;;;;4.40;99.90;;;;;;4956796;28;19930;-65
2024/03/29 01:11:37;;;;;;;;;;;4.40;99.90;;;;;;4938855;28;19930;-65
2024/03/29 01:14:03;;;;;;;;;;;4.50;99.90;;;;;;4942185;28;19930;-65
2024/03/29 01:16:30;;;;;;;;;;;4.50;99.90;;;;;;4955195;28;19968;-65
2024/03/29 01:18:57;;;;;;;;;;;4.50;99.90;;;;;;4941616;28;19934;-65
2024/03/29 01:21:23;;;;;;;;;;;4.50;99.90;;;;;;4938494;28;19998;-65
2024/03/29 01:23:49;;;;;;;;;;;4.40;99.90;;;;;;4948845;28;19999;-65
2024/03/29 01:26:17;;;;;;;;;;;4.30;99.90;;;;;;4958337;28;19937;-65
2024/03/29 01:28:43;;;;;;;;;;;4.20;99.90;;;;;;4955415;28;19981;-65
2024/03/29 01:31:09;;;;;;;;;;;4.00;99.90;;;;;;4957332;28;19997;-65
2024/03/29 01:33:37;;;;;;;;;;;3.90;99.90;;;;;;4947522;28;19937;-65
2024/03/29 01:36:04;;;;;;;;;;;3.90;99.90;;;;;;4957195;28;19937;-65
2024/03/29 01:38:30;;;;;;;;;;;3.80;99.90;;;;;;4951908;28;19974;-65
2024/03/29 01:40:56;;;;;;;;;;;3.80;99.90;;;;;;4957919;28;19927;-65
2024/03/29 01:43:21;;;;;;;;;;;3.80;99.90;;;;;;4957473;28;19952;-65
2024/03/29 01:45:48;;;;;;;;;;;3.80;99.90;;;;;;4956034;28;19930;-65
2024/03/29 01:48:15;;;;;;;;;;;3.80;99.90;;;;;;4955593;28;19958;-65
2024/03/29 01:50:41;;;;;;;;;;;3.80;99.90;;;;;;4941928;28;19926;-65
2024/03/29 01:53:08;;;;;;;;;;;3.80;99.90;;;;;;4966115;28;19937;-65
2024/03/29 01:55:34;;;;;;;;;;;3.80;99.90;;;;;;4946198;28;19926;-65
2024/03/29 01:58:01;;;;;;;;;;;3.70;99.90;;;;;;4956881;28;20420;-65
2024/03/29 02:00:28;;;;;;;;;;;3.60;99.90;;;;;;4951424;28;20306;-65
2024/03/29 02:02:56;;;;;;;;;;;3.60;99.90;;;;;;4949586;28;20353;-65
2024/03/29 02:05:22;;;;;;;;;;;3.50;99.90;;;;;;4955839;28;19926;-65
2024/03/29 02:07:48;;;;;;;;;;;3.50;99.90;;;;;;4946622;28;20425;-65
2024/03/29 02:10:15;;;;;;;;;;;3.50;99.90;;;;;;4956070;28;19926;-65
2024/03/29 02:12:41;;;;;;;;;;;3.40;99.90;;;;;;4949498;28;19933;-65
2024/03/29 02:15:07;;;;;;;;;;;3.40;99.90;;;;;;4954078;28;19976;-66
2024/03/29 02:17:33;;;;;;;;;;;3.40;99.90;;;;;;4944978;28;20454;-65
2024/03/29 02:19:59;;;;;;;;;;;3.40;99.90;;;;;;4956454;28;19934;-65
2024/03/29 02:22:26;;;;;;;;;;;3.40;99.90;;;;;;4945377;28;20042;-65
2024/03/29 02:24:52;;;;;;;;;;;3.40;99.90;;;;;;4950428;28;20402;-65
2024/03/29 02:27:18;;;;;;;;;;;3.30;99.90;;;;;;4956738;28;20025;-65
2024/03/29 02:29:44;;;;;;;;;;;3.30;99.90;;;;;;4955455;28;19926;-65
2024/03/29 02:32:09;;;;;;;;;;;3.30;99.90;;;;;;4954619;28;19930;-65
2024/03/29 02:34:35;;;;;;;;;;;3.30;99.90;;;;;;4950412;28;20292;-65
2024/03/29 02:37:01;;;;;;;;;;;3.30;99.90;;;;;;4956465;28;20044;-65
2024/03/29 02:39:27;;;;;;;;;;;3.30;99.90;;;;;;4945498;28;20429;-65
2024/03/29 02:41:53;;;;;;;;;;;3.40;99.90;;;;;;4956907;28;19930;-65
2024/03/29 02:44:19;;;;;;;;;;;3.60;99.90;;;;;;4956829;28;20461;-65
2024/03/29 02:46:45;;;;;;;;;;;3.70;99.90;;;;;;4943776;28;19974;-65
2024/03/29 02:49:10;;;;;;;;;;;3.90;99.90;;;;;;4964001;28;20041;-65
2024/03/29 02:51:36;;;;;;;;;;;4.10;99.90;;;;;;4945292;28;20029;-65
2024/03/29 02:54:02;;;;;;;;;;;4.20;99.90;;;;;;4950704;28;20335;-65
2024/03/29 02:56:28;;;;;;;;;;;4.30;99.90;;;;;;4950093;28;19930;-65
2024/03/29 02:58:55;;;;;;;;;;;4.40;99.90;;;;;;4955435;28;19927;-65
2024/03/29 03:01:20;;;;;;;;;;;4.40;99.90;;;;;;4956306;28;19926;-65
2024/03/29 03:03:46;;;;;;;;;;;4.30;99.90;;;;;;4947275;28;19926;-65
2024/03/29 03:06:12;;;;;;;;;;;4.30;99.90;;;;;;4962299;28;19937;-65
2024/03/29 03:11:23;;;;;;;;;;;4.30;99.90;;;;;;4944772;28;19940;-65
2024/03/29 03:13:49;;;;;;;;;;;4.30;99.90;;;;;;4961338;28;19941;-65
2024/03/29 03:16:15;;;;;;;;;;;4.20;99.90;;;;;;4955246;28;19934;-65
2024/03/29 03:18:41;;;;;;;;;;;4.20;99.90;;;;;;4949798;28;19927;-65
2024/03/29 03:21:06;;;;;;;;;;;4.20;99.90;;;;;;4945316;28;20317;-65
2024/03/29 03:23:32;;;;;;;;;;;4.20;99.90;;;;;;4949399;28;19962;-65
2024/03/29 03:25:59;;;;;;;;;;;4.10;99.90;;;;;;4962301;28;19934;-65
2024/03/29 03:28:25;;;;;;;;;;;4.10;99.90;;;;;;4948677;28;19927;-65
2024/03/29 03:30:51;;;;;;;;;;;4.10;99.90;;;;;;4955427;28;19930;-65
2024/03/29 03:33:17;;;;;;;;;;;4.00;99.90;;;;;;4956460;28;20464;-65
2024/03/29 03:35:43;;;;;;;;;;;4.00;99.90;;;;;;4955161;28;19934;-65
2024/03/29 03:38:09;;;;;;;;;;;4.00;99.90;;;;;;4948706;28;19941;-65
2024/03/29 03:40:35;;;;;;;;;;;4.00;99.90;;;;;;4943139;28;19930;-64
2024/03/29 03:43:02;;;;;;;;;;;4.20;99.90;;;;;;4935967;28;19980;-65
2024/03/29 03:45:27;;;;;;;;;;;4.30;99.90;;;;;;4946216;28;20361;-65
2024/03/29 03:47:53;;;;;;;;;;;4.30;99.90;;;;;;4954094;28;19957;-65
2024/03/29 03:50:19;;;;;;;;;;;4.40;99.90;;;;;;4955046;28;19926;-65
2024/03/29 03:52:46;;;;;;;;;;;4.40;99.90;;;;;;4951525;28;20441;-65
2024/03/29 03:55:11;;;;;;;;;;;4.50;99.90;;;;;;4949432;28;19930;-65
2024/03/29 03:57:37;;;;;;;;;;;4.40;99.90;;;;;;4947726;28;19935;-65
2024/03/29 04:00:04;;;;;;;;;;;4.40;99.90;;;;;;4941671;28;19926;-66
2024/03/29 04:02:37;;;;;;;;;;;4.40;99.90;;;;;;4954263;28;20528;-65
2024/03/29 04:05:03;;;;;;;;;;;4.30;99.90;;;;;;4947637;28;20425;-65
2024/03/29 04:07:29;;;;;;;;;;;4.30;99.90;;;;;;4955009;28;19930;-65
2024/03/29 04:09:55;;;;;;;;;;;4.30;99.90;;;;;;4952787;28;20311;-65
2024/03/29 04:12:21;;;;;;;;;;;4.30;99.90;;;;;;4953775;28;20068;-65
2024/03/29 04:14:47;;;;;;;;;;;4.40;99.90;;;;;;4954147;28;19934;-65
2024/03/29 04:17:13;;;;;;;;;;;4.40;99.90;;;;;;4948235;28;19941;-65
2024/03/29 04:19:39;;;;;;;;;;;4.40;99.90;;;;;;4945209;28;19938;-65
2024/03/29 04:22:05;;;;;;;;;;;4.30;99.90;;;;;;4950748;28;19936;-65
2024/03/29 04:24:31;;;;;;;;;;;4.30;99.90;;;;;;4955155;28;19930;-65
2024/03/29 04:26:56;;;;;;;;;;;4.20;99.90;;;;;;4942422;28;20399;-65
2024/03/29 04:29:22;;;;;;;;;;;4.20;99.90;;;;;;4949572;28;19930;-65
2024/03/29 04:31:48;;;;;;;;;;;4.20;99.90;;;;;;4949847;28;19926;-65
2024/03/29 04:34:14;;;;;;;;;;;4.20;99.90;;;;;;4949701;28;19934;-65
2024/03/29 04:36:40;;;;;;;;;;;4.20;99.90;;;;;;4960837;28;19926;-65
2024/03/29 04:39:06;;;;;;;;;;;4.20;99.90;;;;;;4969252;28;19933;-65
2024/03/29 04:41:34;;;;;;;;;;;4.20;99.90;;;;;;4958807;28;19927;-65
2024/03/29 04:44:01;;;;;;;;;;;4.20;99.90;;;;;;4961401;28;20338;-65
2024/03/29 04:46:28;;;;;;;;;;;4.20;99.90;;;;;;4957436;28;20452;-65
2024/03/29 04:48:54;;;;;;;;;;;4.20;99.90;;;;;;4966550;28;20420;-65
2024/03/29 04:51:20;;;;;;;;;;;4.30;99.90;;;;;;4958663;28;19927;-65
2024/03/29 04:53:46;;;;;;;;;;;4.40;99.90;;;;;;4961556;28;19926;-65
2024/03/29 04:56:12;;;;;;;;;;;4.60;99.90;;;;;;4945871;28;19926;-65
2024/03/29 04:58:38;;;;;;;;;;;4.60;99.90;;;;;;4949430;28;19961;-65
2024/03/29 05:01:04;;;;;;;;;;;4.70;99.90;;;;;;4944312;28;20032;-65
2024/03/29 05:03:30;;;;;;;;;;;4.70;99.90;;;;;;4959221;28;19927;-65
2024/03/29 05:05:56;;;;;;;;;;;4.80;99.90;;;;;;4961034;28;19926;-65
2024/03/29 05:08:22;;;;;;;;;;;4.80;99.90;;;;;;4958848;28;19938;-66
2024/03/29 05:10:49;;;;;;;;;;;4.80;99.90;;;;;;4971462;28;19961;-65
2024/03/29 05:13:21;;;;;;;;;;;4.80;99.90;;;;;;4940672;28;19934;-65
2024/03/29 05:15:47;;;;;;;;;;;4.80;99.90;;;;;;4960554;28;19930;-66
2024/03/29 05:18:13;;;;;;;;;;;4.70;99.90;;;;;;4958500;28;20395;-66
2024/03/29 05:20:46;;;;;;;;;;;4.70;99.90;;;;;;4948854;28;19962;-65
2024/03/29 05:23:14;;;;;;;;;;;4.70;99.90;;;;;;4964602;28;20488;-65
2024/03/29 05:25:40;;;;;;;;;;;4.60;99.90;;;;;;4959052;28;19926;-65
2024/03/29 05:28:07;;;;;;;;;;;4.60;99.90;;;;;;4955735;28;19926;-66
2024/03/29 05:30:34;;;;;;;;;;;4.60;99.90;;;;;;4960251;28;19930;-65
2024/03/29 05:33:00;;;;;;;;;;;4.50;99.90;;;;;;4956339;28;19938;-65
2024/03/29 05:35:26;;;;;;;;;;;4.50;99.90;;;;;;4954433;28;19933;-65
2024/03/29 05:37:54;;;;;;;;;;;4.50;99.90;;;;;;4954707;28;19930;-66
2024/03/29 05:40:25;;;;;;;;;;;4.50;99.90;;;;;;4955518;28;19934;-65
2024/03/29 05:42:50;;;;;;;;;;;4.50;99.90;;;;;;4940102;28;19930;-65
2024/03/29 05:45:24;;;;;;;;;;;4.50;99.90;;;;;;4957484;28;19937;-65
2024/03/29 05:47:50;;;;;;;;;;;4.50;99.90;;;;;;4964683;28;19930;-66
2024/03/29 05:50:16;;;;;;;;;;;4.50;99.90;;;;;;4951484;28;19927;-65
2024/03/29 05:52:42;;;;;;;;;;;4.50;99.90;;;;;;4951730;28;19930;-65
2024/03/29 05:55:09;;;;;;;;;;;4.50;99.90;;;;;;4941032;28;19930;-66
2024/03/29 05:57:38;;;;;;;;;;;4.50;99.90;;;;;;4955063;28;19946;-67
2024/03/29 06:00:05;;;;;;;;;;;4.50;99.90;;;;;;4956350;28;19949;-65
2024/03/29 06:02:31;;;;;;;;;;;4.50;99.90;;;;;;4954953;28;19930;-65
2024/03/29 06:04:57;;;;;;;;;;;4.60;99.90;;;;;;4956251;28;20428;-66
2024/03/29 06:07:23;;;;;;;;;;;4.60;99.90;;;;;;4956022;28;19926;-66
2024/03/29 06:09:49;;;;;;;;;;;4.60;99.90;;;;;;4949040;28;20417;-66
2024/03/29 06:12:14;;;;;;;;;;;4.60;99.90;;;;;;4956009;28;20403;-65
2024/03/29 06:17:25;;;;;;;;;;;4.70;99.90;;;;;;4949510;28;19957;-65
2024/03/29 06:19:54;;;;;;;;;;;4.80;99.90;;;;;;4956432;28;19961;-66
2024/03/29 06:22:21;;;;;;;;;;;4.90;99.90;;;;;;4940848;28;19927;-66
2024/03/29 06:24:48;;;;;;;;;;;4.80;99.90;;;;;;4955214;28;19926;-66
2024/03/29 06:27:17;;;;;;;;;;;4.80;99.90;;;;;;4940573;28;19940;-66
2024/03/29 06:29:43;;;;;;;;;;;4.80;99.90;;;;;;4950876;28;19978;-65
2024/03/29 06:32:09;;;;;;;;;;;4.80;99.90;;;;;;4954532;28;19926;-65
2024/03/29 06:34:35;;;;;;;;;;;4.90;99.90;;;;;;4956029;28;19926;-66
2024/03/29 06:37:01;;;;;;;;;;;4.90;99.90;;;;;;4954952;28;19948;-66
2024/03/29 06:39:27;;;;;;;;;;;4.90;99.90;;;;;;4956934;28;19989;-65
2024/03/29 06:41:53;;;;;;;;;;;5.00;99.90;;;;;;4940840;28;20421;-66
2024/03/29 06:44:20;;;;;;;;;;;5.00;99.90;;;;;;4945021;28;19960;-66
2024/03/29 06:46:46;;;;;;;;;;;5.10;99.90;;;;;;4951096;28;19965;-66
2024/03/29 06:49:12;;;;;;;;;;;5.10;99.90;;;;;;4935756;28;19932;-65
2024/03/29 06:51:38;;;;;;;;;;;5.10;99.90;;;;;;4954451;28;20016;-65
2024/03/29 06:54:04;;;;;;;;;;;5.20;99.90;;;;;;4948541;28;19977;-65
2024/03/29 06:56:30;;;;;;;;;;;5.30;99.90;;;;;;4953790;28;19930;-65
2024/03/29 06:58:56;;;;;;;;;;;5.40;99.90;;;;;;4966034;28;20366;-65
2024/03/29 07:01:22;;;;;;;;;;;5.40;99.90;;;;;;4949723;28;19933;-66
2024/03/29 07:03:48;;;;;;;;;;;5.50;99.90;;;;;;4946442;28;19930;-66
2024/03/29 07:06:14;;;;;;;;;;;5.60;99.90;;;;;;4948504;28;20306;-66
2024/03/29 07:08:40;;;;;;;;;;;5.70;99.90;;;;;;4939862;28;19930;-65
2024/03/29 07:11:06;;;;;;;;;;;5.80;99.90;;;;;;4954080;28;20465;-66
2024/03/29 07:13:32;;;;;;;;;;;5.80;99.90;;;;;;4954245;28;20460;-66
2024/03/29 07:15:58;;;;;;;;;;;5.90;99.90;;;;;;4960810;28;19935;-66
2024/03/29 07:18:24;;;;;;;;;;;5.90;99.90;;;;;;4965920;28;19930;-66
2024/03/29 07:20:50;;;;;;;;;;;6.00;99.90;;;;;;4937236;28;20452;-66
2024/03/29 07:23:16;;;;;;;;;;;6.00;99.90;;;;;;4949437;28;19930;-66
2024/03/29 07:25:45;;;;;;;;;;;6.10;99.90;;;;;;4954867;28;19933;-66
2024/03/29 07:28:14;;;;;;;;;;;6.20;99.90;;;;;;4950864;28;20383;-66
2024/03/29 07:30:41;;;;;;;;;;;6.30;99.90;;;;;;4954456;28;19930;-66
2024/03/29 07:33:09;;;;;;;;;;;6.30;99.90;;;;;;4955714;28;19930;-66
2024/03/29 07:35:34;;;;;;;;;;;6.40;99.90;;;;;;4951300;28;19930;-66
2024/03/29 07:38:00;;;;;;;;;;;6.50;99.90;;;;;;4949528;28;19927;-65
2024/03/29 07:40:26;;;;;;;;;;;6.60;99.90;;;;;;4960694;28;19937;-65
2024/03/29 07:42:52;;;;;;;;;;;6.60;99.90;;;;;;4952396;28;19927;-65
2024/03/29 07:45:18;;;;;;;;;;;6.70;99.90;;;;;;4950997;28;19934;-65
2024/03/29 07:47:44;;;;;;;;;;;6.90;99.90;;;;;;4953553;28;19927;-65
2024/03/29 07:50:10;;;;;;;;;;;6.90;99.90;;;;;;4942775;28;20633;-65
2024/03/29 07:52:36;;;;;;;;;;;6.90;99.90;;;;;;4950841;28;19940;-65
2024/03/29 07:55:01;;;;;;;;;;;7.00;99.90;;;;;;4951730;28;19926;-65
2024/03/29 07:57:28;;;;;;;;;;;7.10;99.90;;;;;;4941439;28;19930;-65
2024/03/29 07:59:53;;;;;;;;;;;7.10;99.90;;;;;;4952462;29;19982;-65
2024/03/29 08:02:19;;;;;;;;;;;7.20;99.90;;;;;;4942824;28;19973;-65
2024/03/29 08:04:45;;;;;;;;;;;7.30;99.90;;;;;;4943147;28;19926;-65
2024/03/29 08:07:12;;;;;;;;;;;7.30;99.90;;;;;;4954420;28;19930;-65
2024/03/29 08:09:39;;;;;;;;;;;7.40;99.90;;;;;;4953260;28;19933;-65
2024/03/29 08:12:05;;;;;;;;;;;7.40;99.90;;;;;;4931931;28;19926;-66
2024/03/29 08:14:31;;;;;;;;;;;7.50;99.90;;;;;;4947938;28;20634;-66
2024/03/29 08:17:02;;;;;;;;;;;7.50;99.90;;;;;;4954774;28;19984;-65
2024/03/29 08:19:28;;;;;;;;;;;7.60;99.90;;;;;;4953218;28;20441;-66
2024/03/29 08:21:54;;;;;;;;;;;7.60;99.90;;;;;;4935237;28;19973;-65
2024/03/29 08:24:19;;;;;;;;;;;7.80;99.90;;;;;;4959537;28;19934;-65
2024/03/29 08:26:45;;;;;;;;;;;7.90;99.90;;;;;;4952366;28;19926;-66
2024/03/29 08:29:11;;;;;;;;;;;8.00;99.90;;;;;;4937514;28;19930;-65
2024/03/29 08:31:37;;;;;;;;;;;8.00;99.90;;;;;;4951880;28;20361;-65
2024/03/29 08:34:03;;;;;;;;;;;8.10;99.90;;;;;;4945453;28;19930;-66
2024/03/29 08:36:29;;;;;;;;;;;8.20;99.90;;;;;;4954278;28;19926;-65
2024/03/29 08:38:55;;;;;;;;;;;8.30;99.90;;;;;;4949783;28;19930;-65
2024/03/29 08:41:20;;;;;;;;;;;8.40;99.90;;;;;;4935803;28;19926;-65
2024/03/29 08:43:46;;;;;;;;;;;8.60;99.90;;;;;;4935740;28;19934;-65
2024/03/29 08:46:12;;;;;;;;;;;8.80;99.90;;;;;;4954447;28;19933;-65
2024/03/29 08:48:42;;;;;;;;;;;8.90;99.90;;;;;;4946147;28;19934;-65
2024/03/29 08:51:08;;;;;;;;;;;9.00;99.90;;;;;;4960703;28;19930;-65
2024/03/29 08:53:34;;;;;;;;;;;9.10;99.90;;;;;;4949194;28;19941;-66
2024/03/29 08:55:59;;;;;;;;;;;9.20;99.90;;;;;;4949833;28;19938;-65
2024/03/29 08:58:25;;;;;;;;;;;9.30;99.90;;;;;;4951108;28;19958;-66
2024/03/29 09:00:55;;;;;;;;;;;9.40;99.90;;;;;;4952307;28;19962;-66
2024/03/29 09:03:24;;;;;;;;;;;9.40;99.90;;;;;;4952425;28;19932;-66
2024/03/29 09:05:50;;;;;;;;;;;9.50;99.90;;;;;;4950708;28;19930;-65
2024/03/29 09:08:19;;;;;;;;;;;9.60;99.90;;;;;;4947264;28;19927;-66
2024/03/29 09:10:45;;;;;;;;;;;9.70;99.90;;;;;;4954570;28;19930;-66
2024/03/29 09:13:11;;;;;;;;;;;9.80;99.90;;;;;;4939786;28;19941;-66
2024/03/29 09:15:38;;;;;;;;;;;9.90;99.90;;;;;;4956549;28;19926;-67
2024/03/29 09:18:10;;;;;;;;;;;9.90;99.90;;;;;;4956872;28;19992;-66
2024/03/29 09:20:36;;;;;;;;;;;9.90;99.90;;;;;;4956702;28;19926;-65
2024/03/29 09:23:03;;;;;;;;;;;10.00;99.90;;;;;;4956740;28;19930;-66
2024/03/29 09:25:30;;;;;;;;;;;10.00;99.90;;;;;;4950166;28;19930;-66
2024/03/29 09:27:55;;;;;;;;;;;10.10;99.90;;;;;;4957166;28;19973;-66
2024/03/29 09:30:22;;;;;;;;;;;10.10;99.90;;;;;;4954805;28;19957;-66
2024/03/29 09:32:49;;;;;;;;;;;10.20;99.90;;;;;;4955217;28;19926;-65
2024/03/29 09:35:17;;;;;;;;;;;10.30;99.90;;;;;;4936578;28;19930;-65
2024/03/29 09:37:43;;;;;;;;;;;10.40;99.90;;;;;;4951360;28;19933;-66
2024/03/29 09:40:10;;;;;;;;;;;10.50;99.90;;;;;;4956512;28;19926;-65
2024/03/29 09:42:38;;;;;;;;;;;10.60;99.90;;;;;;4953788;28;19948;-65
2024/03/29 09:45:04;;;;;;;;;;;10.70;99.90;;;;;;4944739;28;19978;-66
2024/03/29 09:47:31;;;;;;;;;;;10.80;99.90;;;;;;4952178;28;19980;-65
2024/03/29 09:49:58;;;;;;;;;;;10.90;99.90;;;;;;4964646;28;19994;-66
2024/03/29 09:52:24;;;;;;;;;;;11.00;99.90;;;;;;4940114;28;19934;-65
2024/03/29 09:54:50;;;;;;;;;;;11.20;99.90;;;;;;4954918;28;20008;-66
2024/03/29 09:57:17;;;;;;;;;;;11.40;99.90;;;;;;4955936;28;19933;-66
2024/03/29 09:59:43;;;;;;;;;;;11.50;99.90;;;;;;4952555;28;19984;-65
2024/03/29 10:02:14;;;;;;;;;;;11.60;99.90;;;;;;4951481;28;19930;-65
2024/03/29 10:04:40;;;;;;;;;;;11.70;99.90;;;;;;4954866;28;20574;-65
2024/03/29 10:07:06;;;;;;;;;;;11.70;99.90;;;;;;4942221;28;19933;-65
2024/03/29 10:09:33;;;;;;;;;;;11.80;99.90;;;;;;4944050;28;19985;-65
2024/03/29 10:11:58;;;;;;;;;;;11.80;99.90;;;;;;4954902;28;19934;-65
2024/03/29 10:14:24;;;;;;;;;;;11.90;99.90;;;;;;4944849;28;20276;-65
2024/03/29 10:16:52;;;;;;;;;;;12.00;99.90;;;;;;4955145;28;19981;-65
2024/03/29 10:19:18;;;;;;;;;;;12.10;99.90;;;;;;4948720;28;20410;-65
2024/03/29 10:21:43;;;;;;;;;;;12.20;99.90;;;;;;4949609;28;20421;-65
2024/03/29 10:24:14;;;;;;;;;;;12.20;99.90;;;;;;4955379;28;19927;-63
2024/03/29 10:26:41;;;;;;;;;;;12.30;99.90;;;;;;4953499;28;20398;-62
2024/03/29 10:29:07;;;;;;;;;;;12.40;99.90;;;;;;4956093;28;19988;-63
2024/03/29 10:31:36;;;;;;;;;;;12.40;99.90;;;;;;4956766;28;19925;-63
2024/03/29 10:34:03;;;;;;;;;;;12.50;99.90;;;;;;4939259;28;19930;-64
2024/03/29 10:36:29;;;;;;;;;;;12.50;99.90;;;;;;4943905;28;19926;-63
2024/03/29 10:38:55;;;;;;;;;;;12.50;99.90;;;;;;4954136;28;20028;-64
2024/03/29 10:41:22;;;;;;;;;;;12.50;99.90;;;;;;4949001;28;19927;-63
2024/03/29 10:43:50;;;;;;;;;;;12.50;99.90;;;;;;4962761;28;20314;-64
2024/03/29 10:46:17;;;;;;;;;;;12.40;99.90;;;;;;4953403;28;19937;-63
2024/03/29 10:48:45;;;;;;;;;;;12.30;99.90;;;;;;4951073;28;19926;-64
2024/03/29 10:51:11;;;;;;;;;;;12.30;99.90;;;;;;4954705;28;19933;-64
2024/03/29 10:53:38;;;;;;;;;;;12.20;99.90;;;;;;4935284;28;19934;-64
2024/03/29 10:56:07;;;;;;;;;;;12.20;99.90;;;;;;4937492;28;19926;-64
2024/03/29 10:58:35;;;;;;;;;;;12.20;99.90;;;;;;4935699;28;19985;-64
2024/03/29 11:01:01;;;;;;;;;;;12.20;99.90;;;;;;4954442;28;19934;-65
2024/03/29 11:03:49;;;;;;;;;;;12.30;99.90;;;;;;4951578;28;19937;-64
2024/03/29 11:06:15;;;;;;;;;;;12.30;99.90;;;;;;4963039;28;19941;-64
2024/03/29 11:08:45;;;;;;;;;;;12.50;99.90;;;;;;4950634;28;19926;-63
2024/03/29 11:11:12;;;;;;;;;;;12.50;99.90;;;;;;4954678;28;19937;-64
2024/03/29 11:13:45;;;;;;;;;;;12.60;99.90;;;;;;4937792;28;19927;-64
2024/03/29 11:16:11;;;;;;;;;;;12.60;99.90;;;;;;4951797;28;19930;-64
2024/03/29 11:18:37;;;;;;;;;;;12.70;99.90;;;;;;4954682;28;19938;-64
2024/03/29 11:21:06;;;;;;;;;;;12.70;99.90;;;;;;4954937;28;19933;-63
2024/03/29 11:23:32;;;;;;;;;;;12.80;99.90;;;;;;4945981;28;19926;-64
2024/03/29 11:25:59;;;;;;;;;;;12.90;99.90;;;;;;4951766;28;19930;-63
2024/03/29 11:28:26;;;;;;;;;;;12.90;99.90;;;;;;4943256;28;19926;-64
2024/03/29 11:30:53;;;;;;;;;;;13.00;99.90;;;;;;4954478;28;19930;-63
2024/03/29 11:33:26;;;;;;;;;;;13.10;99.90;;;;;;4953775;28;19933;-64
2024/03/29 11:35:52;;;;;;;;;;;13.10;99.90;;;;;;4962884;28;19926;-63
2024/03/29 11:38:18;;;;;;;;;;;13.20;99.90;;;;;;4948231;28;19961;-63
2024/03/29 11:41:03;;;;;;;;;;;13.20;99.90;;;;;;4950842;28;20465;-64
2024/03/29 11:43:31;;;;;;;;;;;13.20;99.90;;;;;;4951715;28;20425;-63
2024/03/29 11:46:07;;;;;;;;;;;13.30;99.90;;;;;;4950930;28;19933;-63
2024/03/29 11:48:33;;;;;;;;;;;13.40;99.90;;;;;;4937116;28;19962;-63
2024/03/29 11:51:00;;;;;;;;;;;13.50;99.90;;;;;;4953403;28;19926;-63
2024/03/29 11:53:27;;;;;;;;;;;13.60;99.90;;;;;;4955734;28;19953;-63
2024/03/29 11:55:54;;;;;;;;;;;13.70;99.90;;;;;;4948839;28;19930;-64
2024/03/29 11:58:21;;;;;;;;;;;13.80;99.90;;;;;;4942128;28;19926;-63
2024/03/29 12:00:48;;;;;;;;;;;13.90;99.90;;;;;;4953404;28;20351;-63
2024/03/29 12:03:16;;;;;;;;;;;14.00;99.90;;;;;;4946852;28;20395;-63
2024/03/29 12:05:42;;;;;;;;;;;14.00;99.90;;;;;;4953987;28;19930;-63
2024/03/29 12:08:09;;;;;;;;;;;14.10;99.90;;;;;;4953224;28;20033;-63
2024/03/29 12:10:36;;;;;;;;;;;14.10;99.90;;;;;;4952123;28;19937;-64
2024/03/29 12:13:02;;;;;;;;;;;14.10;99.90;;;;;;4952507;28;19939;-63
2024/03/29 12:15:28;;;;;;;;;;;14.10;99.90;;;;;;4954149;28;19981;-63
2024/03/29 12:17:58;;;;;;;;;;;14.20;99.90;;;;;;4935155;28;19930;-63
2024/03/29 12:20:24;;;;;;;;;;;14.30;99.90;;;;;;4948547;28;20306;-64
2024/03/29 12:22:51;;;;;;;;;;;14.50;99.90;;;;;;4936490;28;19926;-64
2024/03/29 12:25:17;;;;;;;;;;;14.50;99.90;;;;;;4952186;28;19931;-63
2024/03/29 12:27:43;;;;;;;;;;;14.60;99.90;;;;;;4947888;28;19932;-63
2024/03/29 12:30:09;;;;;;;;;;;14.70;99.90;;;;;;4953475;28;20365;-63
2024/03/29 12:32:35;;;;;;;;;;;14.80;99.90;;;;;;4952273;28;19930;-64
2024/03/29 12:35:11;;;;;;;;;;;14.80;99.90;;;;;;4952667;28;19981;-66
2024/03/29 12:37:37;;;;;;;;;;;14.90;99.90;;;;;;4948737;28;19937;-66
2024/03/29 12:40:12;;;;;;;;;;;15.00;99.90;;;;;;4953591;28;19926;-66
2024/03/29 12:42:39;;;;;;;;;;;15.10;99.90;;;;;;4941402;28;19935;-66
2024/03/29 12:45:06;;;;;;;;;;;15.20;99.90;;;;;;4953518;28;19926;-66
2024/03/29 12:47:33;;;;;;;;;;;15.20;99.90;;;;;;4947665;28;19934;-66
2024/03/29 12:50:00;;;;;;;;;;;15.20;99.90;;;;;;4958823;28;19926;-66
2024/03/29 12:52:26;;;;;;;;;;;15.40;99.90;;;;;;4968572;28;19954;-66
2024/03/29 12:54:52;;;;;;;;;;;15.40;99.90;;;;;;4956415;28;19930;-72
2024/03/29 12:57:18;;;;;;;;;;;15.50;99.90;;;;;;4942099;28;20393;-66
2024/03/29 12:59:46;;;;;;;;;;;15.70;99.90;;;;;;4965352;28;20664;-66
2024/03/29 13:02:13;;;;;;;;;;;15.90;99.90;;;;;;4956802;28;19998;-66
2024/03/29 13:04:43;;;;;;;;;;;16.00;99.90;;;;;;4956639;28;20306;-66
2024/03/29 13:07:09;;;;;;;;;;;16.10;99.90;;;;;;4957393;28;19930;-66
2024/03/29 13:09:35;;;;;;;;;;;16.30;99.90;;;;;;4941007;28;19960;-66
2024/03/29 13:12:01;;;;;;;;;;;16.20;99.90;;;;;;4949770;28;19930;-66
2024/03/29 13:14:27;;;;;;;;;;;16.20;99.90;;;;;;4946945;28;19985;-66
2024/03/29 13:16:53;;;;;;;;;;;16.20;99.90;;;;;;4947550;28;19937;-66
2024/03/29 13:19:18;;;;;;;;;;;16.10;99.90;;;;;;4958052;28;19926;-66
2024/03/29 13:21:44;;;;;;;;;;;16.00;99.90;;;;;;4951202;28;19927;-66
2024/03/29 13:24:10;;;;;;;;;;;16.10;99.90;;;;;;4955922;28;20013;-66
2024/03/29 13:26:36;;;;;;;;;;;16.10;99.90;;;;;;4939539;28;19937;-66
2024/03/29 13:29:02;;;;;;;;;;;16.20;99.90;;;;;;4951730;28;19938;-66
2024/03/29 13:31:29;;;;;;;;;;;16.20;99.90;;;;;;4954995;28;19934;-66
2024/03/29 13:34:03;;;;;;;;;;;16.30;99.90;;;;;;4956150;28;19930;-66
2024/03/29 13:36:30;;;;;;;;;;;16.30;99.90;;;;;;4939426;28;19927;-66
2024/03/29 13:38:56;;;;;;;;;;;16.40;99.90;;;;;;4953323;28;20387;-66
2024/03/29 13:41:22;;;;;;;;;;;16.40;99.90;;;;;;4957477;28;19926;-66
2024/03/29 13:43:47;;;;;;;;;;;16.40;99.90;;;;;;4956956;28;19930;-65
2024/03/29 13:46:13;;;;;;;;;;;16.50;99.90;;;;;;4956248;28;19934;-65
2024/03/29 13:48:41;;;;;;;;;;;16.50;99.90;;;;;;4946670;28;20314;-66
2024/03/29 13:51:07;;;;;;;;;;;16.60;99.90;;;;;;4949781;28;19930;-65
2024/03/29 13:53:34;;;;;;;;;;;16.70;99.90;;;;;;4951827;28;19980;-65
2024/03/29 13:56:04;;;;;;;;;;;16.80;99.90;;;;;;4956974;28;20345;-65
2024/03/29 13:58:30;;;;;;;;;;;17.00;99.90;;;;;;4949406;28;19926;-65
2024/03/29 14:00:59;;;;;;;;;;;17.10;99.90;;;;;;4943413;28;20303;-65
2024/03/29 14:03:25;;;;;;;;;;;17.10;99.90;;;;;;4940537;28;19931;-65
2024/03/29 14:05:51;;;;;;;;;;;17.10;99.90;;;;;;4956526;28;19933;-65
2024/03/29 14:08:17;;;;;;;;;;;17.20;99.90;;;;;;4949120;28;19933;-65
2024/03/29 14:10:44;;;;;;;;;;;17.40;99.90;;;;;;4945684;28;19926;-65
2024/03/29 14:13:10;;;;;;;;;;;17.50;99.90;;;;;;4944190;28;19929;-65
2024/03/29 14:15:36;;;;;;;;;;;17.70;99.90;;;;;;4968825;28;19938;-66
2024/03/29 14:18:02;;;;;;;;;;;17.90;99.90;;;;;;4954158;28;19934;-66
2024/03/29 14:20:28;;;;;;;;;;;17.90;99.90;;;;;;4955319;28;19930;-65
2024/03/29 14:22:57;;;;;;;;;;;17.90;99.90;;;;;;4947087;28;19930;-65
2024/03/29 14:25:23;;;;;;;;;;;17.90;99.90;;;;;;4953721;28;20334;-65
2024/03/29 14:27:54;;;;;;;;;;;17.90;99.90;;;;;;4939941;28;19935;-65